Cameron, New Mexico
Current Conditions -  °F | °C
As of 3:15 PM on Sunday 25 Jan 2015 (Local Time) from KCVN Reporting Station
Clear Clear  
Wind Chill: 50°   Ceiling: Unl
Heat Index: 50°   Visibility: NA
Dew Point: 30°   Wind: 5mph
Humidity: 47%   Direction: 310°NW
Pressure: 30.23"   Gusts: NA
Location:  34.7878°N, 103.316°W
Report Text: KCVN 252215Z AUTO 31004KT CLR 10/M01 A3023 RMK AO1
Loading
Personal Weather Stations






























Interactive Weather Map New forecast layout! Learn more

10-Day Weather Forecast

Advertisements
Track Severe Weather on mobile